LSZS Airport Information

Runway Information
Runway 03 Length 5905 ft width 130 ft
Elevation 5600 ft Threshold 0 ft Heading 29
Runway 21 Length 5905 ft Width 130 ft
Elevation 5574 ft Threshold 360 ft Heading 209
Airport Frequencies
Type A/G Name GLIDER Frequency 123.67 MHZ
Type ATIS Name ATIS Frequency 136.6 MHZ
Type GND Name GND Frequency 121.6 MHZ
Type INFO Name INFO Frequency 138.05 MHZ
Type TWR Name TWR Frequency 135.325 MHZ
Airport Navaids
Airport Weather Information & NOTAM
ADDS - METARS form results

(0053 UTC 19 September 2021)
Data provider http://aviationweather.gov/metar/data/
 
METAR text: LSZS 190050Z AUTO VRB01KT 9999 OVC021 06/06 Q1018
Conditions at: LSZS (SAMEDAN , CH) observed 0050 UTC 19 September 2021
Temperature: 6.0°C (43°F)
Dewpoint: 6.0°C (43°F) [RH = 100%]
Pressure (altimeter): 30.06 inches Hg (1018.0 mb)
Winds: variable direction winds at 1 MPH (1 knots; 0.5 m/s)
Visibility: 6 or more miles (10+ km)
Ceiling: 2100 feet AGL
Clouds: overcast cloud deck at 2100 feet AGL
Weather: no significant weather observed at this time

METAR text: LSZS 190020Z AUTO VRB02KT 9999 BKN023 06/05 Q1018
Conditions at: LSZS (SAMEDAN , CH) observed 0020 UTC 19 September 2021
Temperature: 6.0°C (43°F)
Dewpoint: 5.0°C (41°F) [RH = 93%]
Pressure (altimeter): 30.06 inches Hg (1018.0 mb)
Winds: variable direction winds at 2 MPH (2 knots; 1.0 m/s)
Visibility: 6 or more miles (10+ km)
Ceiling: 2300 feet AGL
Clouds: broken clouds at 2300 feet AGL
Weather: no significant weather observed at this time

Forecast for: LSZS (SAMEDAN , CH)
Text: TAF LSZS 181425Z 1815/1824 22010KT 9999 FEW070 TX18/1815Z
Forecast period: 1500 to 1600 UTC 18 September 2021
Forecast type: FROM: standard forecast or significant change
Winds: from the SW (220 degrees) at 12 MPH (10 knots; 5.1 m/s)
Visibility: 6 or more miles (10+ km)
Ceiling: at least 12,000 feet AGL
Clouds: few clouds at 7000 feet AGL
Weather: no significant weather forecast for this period
Text: BECMG 1816/1819 VRB02KT CAVOK
Forecast period: 1600 UTC 18 September 2021 to 0000 UTC 19 September 2021
Forecast type: BECOMING: Conditions expected to become as follows by 1900 UTC 18 September 2021
Winds: variable direction winds at 2 MPH (2 knots; 1.0 m/s)
Visibility: 6 or more miles (10+ km)
Ceiling: unknown
Clouds: missing
Weather: NSW  (no significant weather)